ADDS METAR Data INFO
IDs: Format: Raw Decoded Include TAF

Data at: 0026 UTC 23 Oct 2017

KALN 222350Z 33008KT 10SM BKN017 BKN028 OVC049 12/11 A3006
KALN 222250Z 35008KT 10SM OVC049 12/11 A3003
KALN 222145Z 35010KT 10SM OVC038 12/11 A3003
KALN 222050Z 32010KT 7SM SCT010 OVC017 12/12 A3005
KALN 221945Z 30014G20KT 5SM -RA OVC010 12/12 A3004
KALN 221845Z 30014KT 5SM DZ OVC005 14/14 A3002
KALN 221813Z 30011G15KT 3SM BR BKN007 OVC013 15/15 A3001
KALN 221745Z 31008KT 5SM RA OVC005 15/15 A3001
KALN 221645Z 29008KT 7SM RA OVC005 16/16 A2998
KALN 221547Z 27004KT 10SM BKN005 OVC011 17/17 A2995
KALN 221510Z 25012KT 6SM BR BKN007 OVC013 17/17 A2994
KALN 221455Z 25013G18KT 10SM OVC013 18/18 A2994
KALN 221352Z 17014G20KT 10SM OVC020 21/18 A2992
KALN 221247Z 17014KT 10SM OVC020 21/18 A2991
KALN 221150Z 16016G22KT 10SM OVC020 20/18 A2990
KALN 221135Z AUTO 15009G18KT 10SM OVC022 21/18 A2989 RMK AO2 LTG DSNT N T02050177
KALN 221115Z AUTO 15012G19KT 10SM OVC022 21/18 A2990 RMK AO2 T02050177
KALN 221055Z AUTO 15012KT 10SM OVC022 21/18 A2990 RMK AO2 LTG DSNT S T02060175
KALN 221035Z AUTO 15012G16KT 10SM OVC024 21/17 A2990 RMK AO2 T02060174
KALN 221015Z AUTO 14008G14KT 10SM OVC024 21/17 A2990 RMK AO2 T02050173
KALN 220955Z AUTO 14009G15KT 10SM OVC024 20/17 A2990 RMK AO2 LTG DSNT N T02040171
KALN 220935Z AUTO 13008G20KT 10SM OVC026 21/17 A2990 RMK AO2 LTG DSNT N S AND NW T02050171
KALN 220915Z AUTO 13011G15KT 10SM OVC026 21/17 A2991 RMK AO2 T02050171
KALN 220855Z AUTO 15009G17KT 10SM BKN028 OVC060 21/17 A2991 RMK AO2 LTG DSNT N AND SW T02050170
KALN 220835Z AUTO 15013KT 10SM SCT026 SCT042 OVC090 20/17 A2992 RMK AO2 LTG DSNT N T02020171
KALN 220815Z AUTO 14012G17KT 10SM SCT024 BKN090 20/17 A2991 RMK AO2 LTG DSNT N T02000170
KALN 220755Z AUTO 14011G17KT 10SM SCT024 SCT075 BKN090 20/17 A2991 RMK AO2 T02010171 TSNO
KALN 220735Z AUTO 14013G20KT 10SM SCT075 BKN090 20/17 A2992 RMK AO2 T02020171
KALN 220715Z AUTO 13013G19KT 10SM BKN090 20/17 A2993 RMK AO2 T02020171
KALN 220655Z AUTO 13011G16KT 10SM SCT065 OVC080 20/17 A2994 RMK AO2 T02020170 TSNO
KALN 220635Z AUTO 13012G16KT 10SM OVC065 20/17 A2996 RMK AO2 T02010170
KALN 220615Z AUTO 13010KT 10SM BKN065 OVC085 20/17 A2997 RMK AO2 LTG DSNT W T01990168
KALN 220555Z AUTO 13007KT 10SM SCT065 OVC085 20/17 A2998 RMK AO2 T01980165 10229 20195 402550121 TSNO
KALN 220535Z AUTO 12010KT 10SM BKN095 20/16 A2998 RMK AO2 LTG DSNT NW T01960163
KALN 220515Z AUTO 13009KT 10SM SCT080 OVC095 20/16 A2999 RMK AO2 LTG DSNT W T02000163
KALN 220455Z AUTO 00000KT 10SM SCT070 BKN085 OVC090 20/16 A3001 RMK AO2 LTG DSNT W T02030164
KALN 220435Z AUTO 13009KT 10SM SCT050 OVC065 21/16 A3001 RMK AO2 LTG DSNT W T02050163
KALN 220415Z AUTO 14007KT 10SM OVC050 21/16 A3002 RMK AO2 LTG DSNT W AND NW T02090161
KALN 220355Z AUTO 14007KT 10SM OVC060 21/16 A3002 RMK AO2 LTG DSNT SW T02120161
KALN 220335Z AUTO 14009KT 10SM OVC060 22/16 A3001 RMK AO2 LTG DSNT SW T02150160
KALN 220315Z AUTO 14007G14KT 10SM OVC060 22/16 A3001 RMK AO2 T02150160
KALN 220147Z 15012KT 10SM BKN055 21/15 A2998
KALN 220050Z 16010KT 10SM OVC055 22/15 A2999
KALN 212345Z 16008KT 10SM SCT060 OVC070 23/16 A2999
KALN 212247Z 17010KT 10SM SCT060 75/63 A2999
KALN 212145Z 19016KT 10SM SCT120 24/17 A2998
KALN 212047Z 19015G20KT 10SM SCT120 25/17 A2998
KALN 211947Z 18014G20KT 10SM BKN120 23/17 A3000
KALN 211846Z 18012KT 10SM BKN120 23/17 A3002
KALN 211748Z 18010KT 10SM BKN120 22/17 A3005
KALN 211646Z 17007KT 10SM SCT090 SCT110 BKN200 18/16 A3008
KALN 211555Z 17010G18KT 10SM SCT037 SCT120 BKN200 19/15 A3008
KALN 211445Z 15008G18KT 10SM SCT060 SCT110 OVC200 17/15 A3006
KALN 211354Z 15008KT 10SM SCT100 SCT120 OVC200 16/14 A3006
KALN 211247Z 14008KT 10SM SCT140 OVC200 15/12 A3005